Time;durP1;ratioP1;P1;durP2;ratioP2;P2;SDS_P1;SDS_P2;PMS_P1;PMS_P2;Temp;Humidity;BMP_temperature;BMP_pressure;BME280_temperature;BME280_humidity;BME280_pressure;Samples;Min_cycle;Max_cycle;Signal;HPM_P1;HPM_P2
2021/08/05 00:01:20;;;;;;;5.35;3.85;;;14.80;99.90;;;;;;4970108;28;20573;-49
2021/08/05 00:03:46;;;;;;;4.25;3.45;;;14.80;99.90;;;;;;4971475;28;20496;-48
2021/08/05 00:06:12;;;;;;;6.32;3.50;;;14.80;99.90;;;;;;4971546;28;20062;-49
2021/08/05 00:08:37;;;;;;;4.13;3.08;;;14.80;99.90;;;;;;4971996;28;20094;-52
2021/08/05 00:11:03;;;;;;;4.35;3.28;;;14.80;99.90;;;;;;4972093;28;20041;-51
2021/08/05 00:13:28;;;;;;;6.35;3.67;;;14.80;99.90;;;;;;4971399;28;20023;-52
2021/08/05 00:15:54;;;;;;;6.20;3.60;;;14.80;99.90;;;;;;4971197;28;20405;-49
2021/08/05 00:18:20;;;;;;;4.03;3.63;;;14.80;99.90;;;;;;4971457;28;20039;-50
2021/08/05 00:20:46;;;;;;;3.90;2.92;;;14.70;99.90;;;;;;4971118;28;20039;-52
2021/08/05 00:23:11;;;;;;;5.22;3.90;;;14.70;99.90;;;;;;4969996;28;20027;-48
2021/08/05 00:25:37;;;;;;;4.75;3.22;;;14.70;99.90;;;;;;4971036;28;20023;-50
2021/08/05 00:28:03;;;;;;;4.82;3.55;;;14.70;99.90;;;;;;4971443;28;20030;-51
2021/08/05 00:30:30;;;;;;;4.60;3.08;;;14.70;99.90;;;;;;4971269;28;20493;-52
2021/08/05 00:32:56;;;;;;;6.57;3.08;;;14.70;99.90;;;;;;4970783;28;20110;-51
2021/08/05 00:35:21;;;;;;;6.00;3.92;;;14.70;99.90;;;;;;4970208;28;20110;-50
2021/08/05 00:37:47;;;;;;;3.40;2.85;;;14.70;99.90;;;;;;4969611;28;20045;-49
2021/08/05 00:40:13;;;;;;;4.97;3.25;;;14.70;99.90;;;;;;4970120;28;20114;-50
2021/08/05 00:42:38;;;;;;;4.28;3.38;;;14.60;99.90;;;;;;4971430;28;20102;-49
2021/08/05 00:45:05;;;;;;;6.20;3.38;;;14.70;99.90;;;;;;4969738;28;20033;-50
2021/08/05 00:47:30;;;;;;;4.00;3.15;;;14.70;99.90;;;;;;4973168;28;20019;-53
2021/08/05 00:49:56;;;;;;;3.10;2.80;;;14.60;99.90;;;;;;4966005;28;20255;-52
2021/08/05 00:52:22;;;;;;;6.78;2.92;;;14.60;99.90;;;;;;4966525;28;20026;-48
2021/08/05 00:54:51;;;;;;;4.35;2.92;;;14.60;99.90;;;;;;4970882;28;20077;-49
2021/08/05 00:57:17;;;;;;;3.53;3.22;;;14.60;99.90;;;;;;4970373;28;20019;-49
2021/08/05 00:59:42;;;;;;;3.15;2.90;;;14.50;99.90;;;;;;4968637;28;20596;-50
2021/08/05 01:02:12;;;;;;;4.03;3.10;;;14.60;99.90;;;;;;4968489;28;20417;-51
2021/08/05 01:04:38;;;;;;;3.20;2.90;;;14.60;99.90;;;;;;4968250;28;20366;-50
2021/08/05 01:07:14;;;;;;;3.72;3.35;;;14.60;99.90;;;;;;4970231;28;20049;-50
2021/08/05 01:10:04;;;;;;;3.83;2.63;;;14.50;99.90;;;;;;4970479;28;20508;-48
2021/08/05 01:12:50;;;;;;;4.25;2.97;;;14.50;99.90;;;;;;4967538;28;20027;-49
2021/08/05 01:15:21;;;;;;;3.20;2.40;;;14.50;99.90;;;;;;4970203;28;20856;-48
2021/08/05 01:17:49;;;;;;;4.35;2.80;;;14.50;99.90;;;;;;4966571;28;20110;-49
2021/08/05 01:20:21;;;;;;;3.33;3.00;;;14.50;99.90;;;;;;4968963;28;20117;-50
2021/08/05 01:23:01;;;;;;;4.05;2.72;;;14.50;99.90;;;;;;4970145;28;20022;-49
2021/08/05 01:25:41;;;;;;;7.90;3.42;;;14.50;99.90;;;;;;4963761;28;20023;-48
2021/08/05 01:28:07;;;;;;;2.60;2.38;;;14.50;99.90;;;;;;4970019;28;20030;-52
2021/08/05 01:30:35;;;;;;;2.83;2.58;;;14.50;99.90;;;;;;4970379;28;20057;-48
2021/08/05 01:33:01;;;;;;;3.05;2.78;;;14.40;99.90;;;;;;4970348;28;20031;-49
2021/08/05 01:35:28;;;;;;;4.68;2.70;;;14.40;99.90;;;;;;4969786;28;20098;-49
2021/08/05 01:37:55;;;;;;;2.90;2.70;;;14.40;99.90;;;;;;4969833;28;20044;-50
2021/08/05 01:40:21;;;;;;;3.13;2.65;;;14.40;99.90;;;;;;4969515;28;20468;-53
2021/08/05 01:42:48;;;;;;;5.47;2.67;;;14.40;99.90;;;;;;4969840;28;20521;-49
2021/08/05 01:45:17;;;;;;;4.90;2.92;;;14.40;99.90;;;;;;4969136;28;20102;-49
2021/08/05 01:47:44;;;;;;;3.03;2.72;;;14.40;99.90;;;;;;4970052;28;20113;-48
2021/08/05 01:50:12;;;;;;;5.55;2.70;;;14.40;99.90;;;;;;4968832;28;21560;-50
2021/08/05 01:52:38;;;;;;;4.13;3.00;;;14.40;99.90;;;;;;4961142;28;20023;-49
2021/08/05 01:55:05;;;;;;;3.03;2.47;;;14.40;99.90;;;;;;4969126;28;20540;-50
2021/08/05 01:57:31;;;;;;;3.42;2.90;;;14.40;99.90;;;;;;4970107;28;20019;-50
2021/08/05 01:59:57;;;;;;;3.75;2.63;;;14.40;99.90;;;;;;4969787;28;20323;-51
2021/08/05 02:02:22;;;;;;;4.15;2.40;;;14.40;99.90;;;;;;4969713;28;20019;-51
2021/08/05 02:05:04;;;;;;;3.05;2.40;;;14.30;99.90;;;;;;4969065;28;20150;-51
2021/08/05 02:08:00;;;;;;;4.13;2.13;;;14.30;99.90;;;;;;4966107;28;20504;-49
2021/08/05 02:10:35;;;;;;;2.58;2.20;;;14.30;99.90;;;;;;4962719;28;20113;-51
2021/08/05 02:13:01;;;;;;;4.53;2.30;;;14.30;99.90;;;;;;4969692;28;20042;-49
2021/08/05 02:15:29;;;;;;;3.65;1.75;;;14.30;99.90;;;;;;4969073;28;20049;-48
2021/08/05 02:17:55;;;;;;;2.83;2.63;;;14.30;99.90;;;;;;4969093;28;20038;-51
2021/08/05 02:20:22;;;;;;;3.20;2.47;;;14.30;99.90;;;;;;4969308;28;20034;-49
2021/08/05 02:22:48;;;;;;;3.05;2.17;;;14.30;99.90;;;;;;4969426;28;20505;-51
2021/08/05 02:25:14;;;;;;;2.03;1.75;;;14.30;99.90;;;;;;4968871;28;20030;-49
2021/08/05 02:27:41;;;;;;;3.10;2.05;;;14.30;99.90;;;;;;4969448;28;20372;-49
2021/08/05 02:30:08;;;;;;;2.10;1.90;;;14.30;99.90;;;;;;4968497;28;20018;-49
2021/08/05 02:32:35;;;;;;;2.47;2.28;;;14.30;99.90;;;;;;4969323;28;20078;-49
2021/08/05 02:35:07;;;;;;;3.50;2.10;;;14.20;99.90;;;;;;4968999;28;20488;-50
2021/08/05 02:37:34;;;;;;;3.00;2.00;;;14.20;99.90;;;;;;4969426;28;20069;-49
2021/08/05 02:40:00;;;;;;;1.70;1.60;;;14.30;99.90;;;;;;4968601;28;20096;-49
2021/08/05 02:42:26;;;;;;;5.25;2.17;;;14.20;99.90;;;;;;4969061;28;20030;-50
2021/08/05 02:44:52;;;;;;;4.15;2.47;;;14.20;99.90;;;;;;4968861;28;20050;-49
2021/08/05 02:47:18;;;;;;;2.75;1.98;;;14.30;99.90;;;;;;4969186;28;20015;-50
2021/08/05 02:49:49;;;;;;;2.17;1.98;;;14.30;99.90;;;;;;4969112;28;20023;-53
2021/08/05 02:52:14;;;;;;;2.17;2.08;;;14.30;99.90;;;;;;4968995;28;20079;-51
2021/08/05 02:54:41;;;;;;;2.72;1.65;;;14.30;99.90;;;;;;4968646;28;20035;-51
2021/08/05 02:57:06;;;;;;;4.07;2.00;;;14.30;99.90;;;;;;4968843;28;20035;-53
2021/08/05 02:59:32;;;;;;;2.67;1.92;;;14.30;99.90;;;;;;4973333;28;20031;-50
2021/08/05 03:01:58;;;;;;;2.03;1.88;;;14.30;99.90;;;;;;4971515;28;20037;-53
2021/08/05 03:04:30;;;;;;;2.35;1.92;;;14.20;99.90;;;;;;4972724;28;20077;-52
2021/08/05 03:06:56;;;;;;;3.03;2.10;;;14.20;99.90;;;;;;4972655;28;20038;-51
2021/08/05 03:09:22;;;;;;;4.78;2.20;;;14.20;99.90;;;;;;4970892;28;20026;-49
2021/08/05 03:11:47;;;;;;;3.15;1.90;;;14.20;99.90;;;;;;4972883;28;20026;-50
2021/08/05 03:14:14;;;;;;;3.53;2.50;;;14.20;99.90;;;;;;4972493;28;20034;-51
2021/08/05 03:16:39;;;;;;;2.30;2.00;;;14.20;99.90;;;;;;4972582;28;20111;-48
2021/08/05 03:19:05;;;;;;;3.03;2.17;;;14.20;99.90;;;;;;4972689;28;20177;-50
2021/08/05 03:21:30;;;;;;;4.60;2.60;;;14.20;99.90;;;;;;4972219;28;20031;-50
2021/08/05 03:23:56;;;;;;;2.75;1.88;;;14.20;99.90;;;;;;4972424;28;20050;-49
2021/08/05 03:26:21;;;;;;;2.20;2.00;;;14.20;99.90;;;;;;4972149;28;20019;-50
2021/08/05 03:28:47;;;;;;;2.13;1.92;;;14.20;99.90;;;;;;4972642;28;20037;-48
2021/08/05 03:31:13;;;;;;;5.85;2.67;;;14.20;99.90;;;;;;4970593;28;20023;-53
2021/08/05 03:33:38;;;;;;;3.40;2.20;;;14.20;99.90;;;;;;4972349;28;20027;-49
2021/08/05 03:36:04;;;;;;;3.33;2.20;;;14.20;99.90;;;;;;4972098;28;20043;-50
2021/08/05 03:38:30;;;;;;;4.22;2.10;;;14.20;99.90;;;;;;4970862;28;20023;-50
2021/08/05 03:40:55;;;;;;;4.53;2.30;;;14.20;99.90;;;;;;4972262;28;20161;-51
2021/08/05 03:43:21;;;;;;;2.72;2.10;;;14.20;99.90;;;;;;4972293;28;20038;-49
2021/08/05 03:45:47;;;;;;;2.40;2.20;;;14.20;99.90;;;;;;4971703;28;20053;-50
2021/08/05 03:48:13;;;;;;;4.15;2.05;;;14.20;99.90;;;;;;4972444;28;20104;-49
2021/08/05 03:50:38;;;;;;;2.58;2.13;;;14.20;99.90;;;;;;4972219;28;20031;-48
2021/08/05 03:53:04;;;;;;;4.90;2.58;;;14.20;99.90;;;;;;4971770;28;20037;-48
2021/08/05 03:55:30;;;;;;;3.50;2.70;;;14.20;99.90;;;;;;4971916;28;20022;-49
2021/08/05 03:57:55;;;;;;;5.75;2.40;;;14.20;99.90;;;;;;4971740;28;20037;-48
2021/08/05 04:00:21;;;;;;;2.22;1.98;;;14.10;99.90;;;;;;4971301;28;20114;-50
2021/08/05 04:02:47;;;;;;;2.53;1.90;;;14.20;99.90;;;;;;4972037;28;20374;-50
2021/08/05 04:05:13;;;;;;;5.40;2.25;;;14.20;99.90;;;;;;4971416;28;20025;-49
2021/08/05 04:07:39;;;;;;;4.68;2.38;;;14.20;99.90;;;;;;4970919;28;20446;-53
2021/08/05 04:10:06;;;;;;;2.72;2.25;;;14.20;99.90;;;;;;4971511;28;20117;-51
2021/08/05 04:12:32;;;;;;;3.83;2.15;;;14.20;99.90;;;;;;4971731;28;20042;-49
2021/08/05 04:14:57;;;;;;;7.60;2.33;;;14.20;99.90;;;;;;4969651;28;20418;-52
2021/08/05 04:17:23;;;;;;;3.30;2.28;;;14.20;99.90;;;;;;4971721;28;20043;-49
2021/08/05 04:19:49;;;;;;;4.63;2.10;;;14.20;99.90;;;;;;4971495;28;20025;-48
2021/08/05 04:22:14;;;;;;;4.22;2.25;;;14.20;99.90;;;;;;4970982;28;20023;-49
2021/08/05 04:24:40;;;;;;;2.97;1.98;;;14.20;99.90;;;;;;4971218;28;20023;-49
2021/08/05 04:27:05;;;;;;;3.85;2.40;;;14.20;99.90;;;;;;4971310;28;20099;-49
2021/08/05 04:29:32;;;;;;;2.08;1.90;;;14.20;99.90;;;;;;4970803;28;20102;-51
2021/08/05 04:31:57;;;;;;;2.30;2.10;;;14.20;99.90;;;;;;4971275;28;20034;-49
2021/08/05 04:34:23;;;;;;;3.15;2.03;;;14.20;99.90;;;;;;4971038;28;20026;-53
2021/08/05 04:36:48;;;;;;;2.88;2.58;;;14.30;99.90;;;;;;4970751;28;20045;-49
2021/08/05 04:39:14;;;;;;;2.72;1.92;;;14.20;99.90;;;;;;4969366;28;20580;-49
2021/08/05 04:41:39;;;;;;;2.58;2.15;;;14.30;99.90;;;;;;4971069;28;20714;-52
2021/08/05 04:44:05;;;;;;;5.72;2.40;;;14.30;99.90;;;;;;4971055;28;20098;-49
2021/08/05 04:46:31;;;;;;;2.55;2.10;;;14.30;99.90;;;;;;4970339;28;20022;-49
2021/08/05 04:48:57;;;;;;;3.17;2.58;;;14.30;99.90;;;;;;4971025;28;20026;-49
2021/08/05 04:51:22;;;;;;;3.75;2.33;;;14.30;99.90;;;;;;4969487;28;20477;-49
2021/08/05 04:53:48;;;;;;;4.20;2.28;;;14.30;99.90;;;;;;4969635;28;20041;-50
2021/08/05 04:56:13;;;;;;;2.45;2.25;;;14.40;99.90;;;;;;4970733;28;20026;-49
2021/08/05 04:58:39;;;;;;;2.30;2.10;;;14.40;99.90;;;;;;4970385;28;20109;-52
2021/08/05 05:01:05;;;;;;;4.70;2.00;;;14.40;99.90;;;;;;4970438;28;20033;-49
2021/08/05 05:03:30;;;;;;;6.25;2.70;;;14.30;99.90;;;;;;4969158;28;20406;-49
2021/08/05 05:05:56;;;;;;;2.95;1.98;;;14.40;99.90;;;;;;4970381;28;20031;-51
2021/08/05 05:08:24;;;;;;;4.25;1.85;;;14.40;99.90;;;;;;4970396;28;20033;-54
2021/08/05 05:10:51;;;;;;;3.45;2.33;;;14.40;99.90;;;;;;4980074;23;20393;-82
2021/08/05 05:13:17;;;;;;;3.05;1.80;;;14.40;99.90;;;;;;4973169;28;20090;-82
2021/08/05 05:15:43;;;;;;;4.07;1.80;;;14.40;99.90;;;;;;4989886;28;20042;-82
2021/08/05 05:18:10;;;;;;;4.28;2.40;;;14.40;99.90;;;;;;4988083;28;20049;-82
2021/08/05 05:20:36;;;;;;;3.72;2.10;;;14.50;99.90;;;;;;4984363;28;20047;-82
2021/08/05 05:23:03;;;;;;;2.00;1.83;;;14.50;99.90;;;;;;4989211;28;20019;-83
2021/08/05 05:25:29;;;;;;;2.33;2.08;;;14.50;99.90;;;;;;5003657;28;20015;-85
2021/08/05 05:27:55;;;;;;;2.00;1.65;;;14.50;99.90;;;;;;4995292;28;20487;-84
2021/08/05 05:30:21;;;;;;;2.90;1.92;;;14.50;99.90;;;;;;4985110;28;20065;-82
2021/08/05 05:32:47;;;;;;;2.05;1.85;;;14.50;99.90;;;;;;4985063;28;20117;-84
2021/08/05 05:35:16;;;;;;;2.55;2.00;;;14.50;99.90;;;;;;4992359;28;20141;-82
2021/08/05 05:37:43;;;;;;;2.45;2.00;;;14.50;99.90;;;;;;4977290;28;20019;-82
2021/08/05 05:40:09;;;;;;;2.15;1.95;;;14.50;99.90;;;;;;4984767;28;20030;-81
2021/08/05 05:42:35;;;;;;;3.03;1.92;;;14.60;99.90;;;;;;4988879;28;20019;-84
2021/08/05 05:45:01;;;;;;;2.97;2.10;;;14.50;99.90;;;;;;4991134;28;20037;-81
2021/08/05 05:47:26;;;;;;;2.30;2.10;;;14.60;99.90;;;;;;4984243;28;20022;-82
2021/08/05 05:49:54;;;;;;;3.20;2.15;;;14.60;99.90;;;;;;4989712;28;20102;-84
2021/08/05 05:52:20;;;;;;;3.42;1.80;;;14.60;99.90;;;;;;4987894;28;20029;-83
2021/08/05 05:54:46;;;;;;;2.45;1.85;;;14.60;99.90;;;;;;4981457;28;20035;-82
2021/08/05 05:57:11;;;;;;;3.13;2.05;;;14.60;99.90;;;;;;4976105;28;20096;-82
2021/08/05 05:59:37;;;;;;;2.13;1.65;;;14.60;99.90;;;;;;4982142;28;20099;-81
2021/08/05 06:02:03;;;;;;;2.92;2.35;;;14.60;99.90;;;;;;4983169;28;20022;-81
2021/08/05 06:04:28;;;;;;;3.00;2.20;;;14.60;99.90;;;;;;4985198;28;20014;-81
2021/08/05 06:06:55;;;;;;;2.20;2.00;;;14.70;99.90;;;;;;4989266;28;20022;-81
2021/08/05 06:09:21;;;;;;;2.45;1.98;;;14.70;99.90;;;;;;4987284;28;20018;-81
2021/08/05 06:11:46;;;;;;;2.13;2.00;;;14.80;99.90;;;;;;4988957;28;20081;-82
2021/08/05 06:14:12;;;;;;;3.38;2.20;;;14.80;99.90;;;;;;4985015;28;20037;-81
2021/08/05 06:16:37;;;;;;;2.40;1.90;;;14.80;99.90;;;;;;4983882;28;20026;-81
2021/08/05 06:19:03;;;;;;;2.72;1.95;;;14.90;99.90;;;;;;4980033;28;20541;-81
2021/08/05 06:21:29;;;;;;;2.92;2.53;;;14.90;99.90;;;;;;4986306;28;20026;-81
2021/08/05 06:23:55;;;;;;;3.70;1.90;;;14.90;99.90;;;;;;4983247;28;20049;-82
2021/08/05 06:26:24;;;;;;;4.25;2.30;;;15.00;99.90;;;;;;4988686;28;20537;-81
2021/08/05 06:28:51;;;;;;;4.15;2.17;;;15.00;99.90;;;;;;4990581;28;20024;-81
2021/08/05 06:31:18;;;;;;;3.47;1.85;;;15.10;99.90;;;;;;4985328;28;20034;-81
2021/08/05 06:33:44;;;;;;;1.88;1.70;;;15.00;99.90;;;;;;4987924;28;20050;-80
2021/08/05 06:36:10;;;;;;;2.15;1.95;;;15.10;99.90;;;;;;4987743;28;20030;-80
2021/08/05 06:38:36;;;;;;;2.38;2.03;;;15.20;99.90;;;;;;4995104;28;20030;-80
2021/08/05 06:41:02;;;;;;;2.40;1.95;;;15.20;99.90;;;;;;4988084;28;20042;-81
2021/08/05 06:43:27;;;;;;;2.83;2.10;;;15.20;99.90;;;;;;4991033;28;20018;-82
2021/08/05 06:45:53;;;;;;;1.75;1.65;;;15.20;99.90;;;;;;4991813;28;20026;-80
2021/08/05 06:48:18;;;;;;;2.47;2.08;;;15.30;99.90;;;;;;4990234;28;20014;-81
2021/08/05 06:50:44;;;;;;;2.90;2.13;;;15.40;99.90;;;;;;4994355;28;20068;-81
2021/08/05 06:53:10;;;;;;;2.05;1.92;;;15.40;99.90;;;;;;4995807;28;20480;-80
2021/08/05 06:55:35;;;;;;;2.05;1.85;;;15.40;99.90;;;;;;4996241;28;20030;-81
2021/08/05 06:58:01;;;;;;;2.55;1.55;;;15.50;99.90;;;;;;4993142;28;20026;-81
2021/08/05 07:00:26;;;;;;;3.90;2.22;;;15.50;99.90;;;;;;4994402;28;20034;-80
2021/08/05 07:02:52;;;;;;;3.60;2.40;;;15.60;99.90;;;;;;4996919;28;20045;-82
2021/08/05 07:05:18;;;;;;;2.20;1.95;;;15.70;99.90;;;;;;4998073;28;20069;-83
2021/08/05 07:07:43;;;;;;;2.10;1.90;;;15.70;99.90;;;;;;4995822;28;20033;-82
2021/08/05 07:10:10;;;;;;;2.97;1.80;;;15.80;99.90;;;;;;4993885;28;20038;-82
2021/08/05 07:12:35;;;;;;;2.70;1.98;;;15.90;99.90;;;;;;4996476;28;20053;-83
2021/08/05 07:15:01;;;;;;;1.80;1.70;;;16.00;99.90;;;;;;4989889;28;20590;-82
2021/08/05 07:17:27;;;;;;;2.45;1.95;;;16.00;99.90;;;;;;4987161;28;20018;-83
2021/08/05 07:19:52;;;;;;;2.50;2.15;;;16.10;99.90;;;;;;4984760;28;20026;-82
2021/08/05 07:22:18;;;;;;;1.92;1.77;;;16.10;99.90;;;;;;4996572;28;20026;-81
2021/08/05 07:24:43;;;;;;;2.13;1.92;;;16.20;99.90;;;;;;4981702;28;20381;-81
2021/08/05 07:27:09;;;;;;;1.67;1.58;;;16.30;99.90;;;;;;4994841;28;20031;-83
2021/08/05 07:29:35;;;;;;;3.33;2.35;;;16.40;99.90;;;;;;4991897;28;20474;-82
2021/08/05 07:32:04;;;;;;;1.70;1.60;;;16.40;99.90;;;;;;4986124;28;20034;-81
2021/08/05 07:34:30;;;;;;;3.08;1.95;;;16.50;99.90;;;;;;4989826;28;20022;-83
2021/08/05 07:36:56;;;;;;;2.05;1.90;;;16.60;99.90;;;;;;4994059;28;20034;-81
2021/08/05 07:39:22;;;;;;;4.05;2.05;;;16.60;99.90;;;;;;4985313;28;20477;-82
2021/08/05 07:41:48;;;;;;;4.30;1.65;;;16.80;99.90;;;;;;4984046;28;20093;-81
2021/08/05 07:44:13;;;;;;;3.15;1.73;;;16.80;99.90;;;;;;4986253;28;20054;-83
2021/08/05 07:46:39;;;;;;;2.78;2.00;;;16.90;99.90;;;;;;4979902;28;20050;-81
2021/08/05 07:49:05;;;;;;;1.83;1.65;;;17.00;99.90;;;;;;4995331;28;20068;-81
2021/08/05 07:51:30;;;;;;;2.33;2.03;;;17.00;99.90;;;;;;4987850;28;20077;-82
2021/08/05 07:53:56;;;;;;;1.95;1.75;;;17.20;99.90;;;;;;4992827;28;20030;-83
2021/08/05 07:56:22;;;;;;;3.00;2.17;;;17.20;99.90;;;;;;4994656;28;20050;-81
2021/08/05 07:58:49;;;;;;;2.92;1.90;;;17.30;99.90;;;;;;4986467;28;20030;-81
2021/08/05 08:01:15;;;;;;;4.10;1.85;;;17.40;99.90;;;;;;4994038;28;20026;-80
2021/08/05 08:03:41;;;;;;;2.45;2.25;;;17.40;99.90;;;;;;5003500;28;20438;-81
2021/08/05 08:06:06;;;;;;;2.80;1.45;;;17.50;99.90;;;;;;4993413;28;20417;-80
2021/08/05 08:08:32;;;;;;;2.80;1.85;;;17.60;99.90;;;;;;4988184;28;20398;-82
2021/08/05 08:10:58;;;;;;;2.88;2.00;;;17.70;99.90;;;;;;4994388;28;20112;-80
2021/08/05 08:13:24;;;;;;;3.08;1.70;;;17.90;99.90;;;;;;4984746;28;20022;-81
2021/08/05 08:15:50;;;;;;;2.38;1.92;;;18.20;99.90;;;;;;4986010;28;20034;-81
2021/08/05 08:18:16;;;;;;;3.53;2.53;;;18.50;99.90;;;;;;4986379;28;20069;-80
2021/08/05 08:20:43;;;;;;;2.45;2.25;;;18.70;99.90;;;;;;4986165;28;20132;-80
2021/08/05 08:23:08;;;;;;;1.77;1.67;;;18.90;99.90;;;;;;4994851;28;20706;-82
2021/08/05 08:25:34;;;;;;;1.95;1.85;;;18.90;99.90;;;;;;4991634;28;20026;-81
2021/08/05 08:28:00;;;;;;;3.08;2.30;;;18.90;99.90;;;;;;4994488;28;20081;-81
2021/08/05 08:30:26;;;;;;;2.15;1.85;;;18.90;99.90;;;;;;4984221;28;20032;-82
2021/08/05 08:32:52;;;;;;;2.90;1.63;;;19.00;99.90;;;;;;5055840;23;20129;-55
2021/08/05 08:35:18;;;;;;;1.88;1.70;;;19.20;99.90;;;;;;5025114;28;20044;-54
2021/08/05 08:37:45;;;;;;;2.88;1.80;;;19.50;99.90;;;;;;5026129;28;20025;-52
2021/08/05 08:40:13;;;;;;;1.65;1.48;;;19.80;99.90;;;;;;5028580;28;20109;-55
2021/08/05 08:42:40;;;;;;;2.33;1.70;;;20.00;99.90;;;;;;5029654;28;20033;-53
2021/08/05 08:45:07;;;;;;;1.98;1.85;;;20.10;99.90;;;;;;5029425;28;20063;-55
2021/08/05 08:47:34;;;;;;;2.50;1.60;;;20.10;99.90;;;;;;5029987;28;20017;-50
2021/08/05 08:50:00;;;;;;;1.95;1.85;;;20.10;99.90;;;;;;5029991;28;20022;-54
2021/08/05 08:52:27;;;;;;;2.83;1.63;;;20.10;99.90;;;;;;5029914;28;20032;-54
2021/08/05 08:54:54;;;;;;;1.98;1.77;;;20.00;99.90;;;;;;5027122;28;20044;-52
2021/08/05 08:57:23;;;;;;;1.92;1.80;;;20.00;99.90;;;;;;5022323;28;20100;-52
2021/08/05 08:59:50;;;;;;;3.13;1.45;;;20.10;99.90;;;;;;5029787;28;20086;-54
2021/08/05 09:02:17;;;;;;;1.95;1.65;;;20.10;99.90;;;;;;5028106;28;20013;-54
2021/08/05 09:04:45;;;;;;;2.90;1.77;;;20.20;99.90;;;;;;5029425;28;20063;-55
2021/08/05 09:07:10;;;;;;;1.90;1.70;;;20.20;99.90;;;;;;5029315;28;20029;-49
2021/08/05 09:09:36;;;;;;;2.63;1.95;;;20.30;99.90;;;;;;5029577;28;20088;-48
2021/08/05 09:12:02;;;;;;;2.78;2.08;;;20.30;99.90;;;;;;5029248;28;20454;-50
2021/08/05 09:14:47;;;;;;;2.63;1.70;;;20.50;99.90;;;;;;5029396;28;20091;-54
2021/08/05 09:17:16;;;;;;;1.63;1.30;;;20.50;99.90;;;;;;5029365;28;20483;-53
2021/08/05 09:19:42;;;;;;;2.08;1.40;;;20.60;99.90;;;;;;5028362;28;20041;-54
2021/08/05 09:22:08;;;;;;;1.80;1.70;;;20.60;99.90;;;;;;5029266;28;20060;-53
2021/08/05 09:24:33;;;;;;;1.38;1.27;;;20.70;99.90;;;;;;5016754;28;20018;-50
2021/08/05 09:27:03;;;;;;;2.30;2.15;;;20.70;99.90;;;;;;5025730;28;20567;-55
2021/08/05 09:29:29;;;;;;;1.90;1.70;;;20.70;99.90;;;;;;5028110;28;20021;-55
2021/08/05 09:32:00;;;;;;;4.57;1.92;;;20.80;99.90;;;;;;5027930;28;20323;-55
2021/08/05 09:34:40;;;;;;;1.85;1.75;;;21.00;99.90;;;;;;5028801;28;20075;-55
2021/08/05 09:37:08;;;;;;;1.92;1.48;;;21.10;99.90;;;;;;5027895;28;20145;-54
2021/08/05 09:39:36;;;;;;;2.10;1.75;;;21.20;99.90;;;;;;5028540;28;20502;-53
2021/08/05 09:42:03;;;;;;;2.22;1.77;;;21.20;99.90;;;;;;5025942;28;20029;-51
2021/08/05 09:44:38;;;;;;;3.47;1.90;;;21.30;99.90;;;;;;5027978;28;20491;-53
2021/08/05 09:47:20;;;;;;;1.70;1.60;;;21.40;99.90;;;;;;5028141;28;20083;-51
2021/08/05 09:49:45;;;;;;;1.75;1.65;;;21.70;99.90;;;;;;5028790;28;20108;-53
2021/08/05 09:52:12;;;;;;;2.20;1.90;;;22.10;99.90;;;;;;5028235;28;20583;-52
2021/08/05 09:54:51;;;;;;;4.90;2.08;;;22.40;99.90;;;;;;5022880;28;20083;-49
2021/08/05 09:57:25;;;;;;;4.85;1.50;;;22.50;99.90;;;;;;5021790;28;20021;-49
2021/08/05 09:59:55;;;;;;;1.77;1.40;;;22.40;99.90;;;;;;5018210;28;20026;-51
2021/08/05 10:02:21;;;;;;;2.05;1.70;;;22.40;99.90;;;;;;5017568;28;20049;-48
2021/08/05 10:04:48;;;;;;;2.92;1.75;;;22.30;99.90;;;;;;5024255;28;20068;-49
2021/08/05 10:07:14;;;;;;;2.08;1.80;;;22.40;99.90;;;;;;5028190;28;20526;-52
2021/08/05 10:09:41;;;;;;;1.67;1.58;;;22.40;99.90;;;;;;5028109;28;20013;-50
2021/08/05 10:12:13;;;;;;;1.90;1.80;;;22.40;99.90;;;;;;5025649;28;20029;-52
2021/08/05 10:14:39;;;;;;;1.85;1.65;;;22.50;99.90;;;;;;5027485;28;20100;-48
2021/08/05 10:17:06;;;;;;;1.92;1.83;;;22.50;99.90;;;;;;5028084;28;20025;-52
2021/08/05 10:19:40;;;;;;;3.30;1.70;;;22.50;99.90;;;;;;5027157;28;20530;-50
2021/08/05 10:22:08;;;;;;;2.30;2.10;;;22.60;99.90;;;;;;5021341;28;20025;-52
2021/08/05 10:24:45;;;;;;;2.60;1.90;;;22.90;99.90;;;;;;5027480;28;20025;-52
2021/08/05 10:27:13;;;;;;;2.00;1.63;;;23.10;99.90;;;;;;5027815;28;20104;-51
2021/08/05 10:29:40;;;;;;;1.83;1.73;;;23.10;99.90;;;;;;5027833;28;20092;-50
2021/08/05 10:32:07;;;;;;;2.00;1.60;;;23.20;99.90;;;;;;5027709;28;20060;-50
2021/08/05 10:34:35;;;;;;;2.00;1.70;;;23.40;99.90;;;;;;5027493;28;20026;-51
2021/08/05 10:37:02;;;;;;;2.83;1.90;;;23.70;99.90;;;;;;5027875;28;20025;-51
2021/08/05 10:39:29;;;;;;;2.13;1.95;;;23.90;99.90;;;;;;5027728;28;20029;-48
2021/08/05 10:41:59;;;;;;;2.05;1.67;;;24.00;99.90;;;;;;5027694;28;20026;-50
2021/08/05 10:44:27;;;;;;;2.72;1.60;;;24.20;99.60;;;;;;5023589;28;20014;-52
2021/08/05 10:46:55;;;;;;;1.77;1.67;;;24.20;99.90;;;;;;5025300;28;20032;-54
2021/08/05 10:49:20;;;;;;;2.60;2.00;;;24.30;98.50;;;;;;5028284;28;20033;-50
2021/08/05 10:51:46;;;;;;;2.45;1.70;;;24.30;98.00;;;;;;5026544;28;20083;-51
2021/08/05 10:54:11;;;;;;;1.70;1.60;;;24.30;98.90;;;;;;5027705;28;20031;-51
2021/08/05 10:56:37;;;;;;;2.55;1.48;;;24.30;98.50;;;;;;5027582;28;20044;-55
2021/08/05 10:59:10;;;;;;;2.53;1.88;;;24.30;98.50;;;;;;5027917;28;20029;-48
2021/08/05 11:01:51;;;;;;;2.08;1.65;;;24.40;99.70;;;;;;5027617;28;20021;-51
2021/08/05 11:04:34;;;;;;;2.45;1.58;;;24.50;99.40;;;;;;5019864;28;20025;-52
2021/08/05 11:07:25;;;;;;;1.60;1.50;;;24.60;98.10;;;;;;5025723;28;20030;-51
2021/08/05 11:10:12;;;;;;;3.08;1.75;;;24.40;98.70;;;;;;5027652;28;20048;-52
2021/08/05 11:12:50;;;;;;;3.30;1.70;;;24.40;98.20;;;;;;5016333;23;20043;-58
2021/08/05 11:15:22;;;;;;;2.08;1.85;;;24.50;98.90;;;;;;4979745;28;20511;-55
2021/08/05 11:18:25;;;;;;;2.00;1.58;;;24.50;97.80;;;;;;4989126;28;20079;-55
2021/08/05 11:20:50;;;;;;;1.92;1.30;;;24.60;99.10;;;;;;4988840;28;20034;-51
2021/08/05 11:23:24;;;;;;;2.05;1.83;;;24.60;97.40;;;;;;4986083;28;20124;-55
2021/08/05 11:25:50;;;;;;;1.98;1.67;;;24.50;98.00;;;;;;4992056;28;20050;-57
2021/08/05 11:28:29;;;;;;;2.28;1.88;;;24.50;95.90;;;;;;4984012;28;20015;-55
2021/08/05 11:30:59;;;;;;;1.42;1.33;;;24.60;96.30;;;;;;4984520;28;20034;-50
2021/08/05 11:33:36;;;;;;;2.10;1.90;;;24.70;96.70;;;;;;4987255;28;20156;-52
2021/08/05 11:36:19;;;;;;;1.90;1.65;;;24.80;94.70;;;;;;4989534;28;20022;-55
2021/08/05 11:39:11;;;;;;;1.58;1.48;;;24.80;95.30;;;;;;4990227;28;20389;-52
2021/08/05 11:41:55;;;;;;;3.00;1.50;;;24.70;96.50;;;;;;4986686;28;20022;-53
2021/08/05 11:44:24;;;;;;;1.50;1.40;;;24.80;95.00;;;;;;4990776;28;20015;-55
2021/08/05 11:47:20;;;;;;;1.85;1.75;;;24.80;94.40;;;;;;4988681;28;20018;-55
2021/08/05 11:49:50;;;;;;;1.75;1.65;;;24.90;95.40;;;;;;4984108;28;20030;-53
2021/08/05 11:52:16;;;;;;;1.70;1.30;;;24.90;94.70;;;;;;5004800;28;20031;-49
2021/08/05 11:55:04;;;;;;;2.40;1.88;;;24.80;93.10;;;;;;4987002;28;20543;-51
2021/08/05 11:57:40;;;;;;;2.70;1.88;;;24.60;94.60;;;;;;4981268;28;20081;-51
2021/08/05 12:00:19;;;;;;;2.30;1.55;;;24.50;93.80;;;;;;4986504;28;20027;-52
2021/08/05 12:02:47;;;;;;;2.10;1.70;;;24.40;94.10;;;;;;4987002;28;20026;-53
2021/08/05 12:05:14;;;;;;;2.10;1.90;;;24.20;94.60;;;;;;4989496;28;20481;-51
2021/08/05 12:07:50;;;;;;;3.22;1.60;;;24.10;94.50;;;;;;4987283;28;20488;-55
2021/08/05 12:10:19;;;;;;;2.03;1.45;;;24.10;95.20;;;;;;4990227;28;20076;-56
2021/08/05 12:12:52;;;;;;;3.40;2.03;;;24.00;95.00;;;;;;4981204;28;20061;-56
2021/08/05 12:15:36;;;;;;;2.17;1.75;;;23.90;95.00;;;;;;4985827;28;20493;-56
2021/08/05 12:18:06;;;;;;;2.60;1.77;;;23.90;95.40;;;;;;4989849;28;20010;-54
2021/08/05 12:20:43;;;;;;;1.80;1.70;;;23.80;94.20;;;;;;4985182;28;20046;-54
2021/08/05 12:23:13;;;;;;;3.05;1.70;;;23.70;95.10;;;;;;4984750;28;20421;-54
2021/08/05 12:26:00;;;;;;;2.92;2.00;;;23.60;95.10;;;;;;4990149;28;20033;-51
2021/08/05 12:28:28;;;;;;;1.70;1.60;;;23.50;96.10;;;;;;4984525;28;20092;-56
2021/08/05 12:30:56;;;;;;;2.10;1.85;;;23.40;94.80;;;;;;4987344;28;20076;-56
2021/08/05 12:33:25;;;;;;;1.95;1.73;;;23.30;96.30;;;;;;4984595;28;20520;-55
2021/08/05 12:36:09;;;;;;;2.08;1.45;;;23.30;96.00;;;;;;4986766;28;20507;-57
2021/08/05 12:38:44;;;;;;;2.90;1.80;;;23.30;97.00;;;;;;4980648;28;20026;-56
2021/08/05 12:41:29;;;;;;;1.80;1.70;;;23.20;98.80;;;;;;4989418;28;20496;-57
2021/08/05 12:43:59;;;;;;;2.63;1.52;;;23.20;99.40;;;;;;4989466;28;20022;-57
2021/08/05 12:46:27;;;;;;;2.10;1.90;;;23.10;99.90;;;;;;4986944;28;20456;-54
2021/08/05 12:48:57;;;;;;;2.50;2.30;;;23.00;99.90;;;;;;4987727;28;20042;-58
2021/08/05 12:51:25;;;;;;;2.15;1.95;;;22.90;99.90;;;;;;4988155;28;20022;-56
2021/08/05 12:53:51;;;;;;;3.15;2.10;;;22.90;99.90;;;;;;4983642;28;20110;-56